sensor_id;sensor_type;location;lat;lon;timestamp;P1;durP1;ratioP1;P2;durP2;ratioP2
34920;SDS011;21128;50.016;20.002;2023-02-04T00:00:10;22.10;;;9.90;;
34920;SDS011;21128;50.016;20.002;2023-02-04T00:02:59;27.07;;;10.60;;
34920;SDS011;21128;50.016;20.002;2023-02-04T00:05:27;26.97;;;10.47;;
34920;SDS011;21128;50.016;20.002;2023-02-04T00:07:54;22.83;;;9.63;;
34920;SDS011;21128;50.016;20.002;2023-02-04T00:10:21;26.57;;;9.13;;
34920;SDS011;21128;50.016;20.002;2023-02-04T00:12:48;24.80;;;10.70;;
34920;SDS011;21128;50.016;20.002;2023-02-04T00:15:16;23.65;;;9.55;;
34920;SDS011;21128;50.016;20.002;2023-02-04T00:17:43;21.10;;;9.43;;
34920;SDS011;21128;50.016;20.002;2023-02-04T00:20:10;21.10;;;8.80;;
34920;SDS011;21128;50.016;20.002;2023-02-04T00:22:38;22.83;;;9.33;;
34920;SDS011;21128;50.016;20.002;2023-02-04T00:25:06;26.87;;;9.10;;
34920;SDS011;21128;50.016;20.002;2023-02-04T00:27:34;27.03;;;9.60;;
34920;SDS011;21128;50.016;20.002;2023-02-04T00:30:10;20.83;;;9.43;;
34920;SDS011;21128;50.016;20.002;2023-02-04T00:32:40;24.50;;;9.33;;
34920;SDS011;21128;50.016;20.002;2023-02-04T00:35:08;19.70;;;6.97;;
34920;SDS011;21128;50.016;20.002;2023-02-04T00:37:35;19.93;;;8.20;;
34920;SDS011;21128;50.016;20.002;2023-02-04T00:40:03;19.67;;;8.60;;
34920;SDS011;21128;50.016;20.002;2023-02-04T00:42:30;20.07;;;8.03;;
34920;SDS011;21128;50.016;20.002;2023-02-04T00:44:57;22.53;;;8.30;;
34920;SDS011;21128;50.016;20.002;2023-02-04T00:47:24;22.37;;;8.37;;
34920;SDS011;21128;50.016;20.002;2023-02-04T00:49:53;13.70;;;6.90;;
34920;SDS011;21128;50.016;20.002;2023-02-04T00:52:20;16.47;;;7.07;;
34920;SDS011;21128;50.016;20.002;2023-02-04T00:54:48;15.63;;;6.73;;
34920;SDS011;21128;50.016;20.002;2023-02-04T00:57:15;18.67;;;6.70;;
34920;SDS011;21128;50.016;20.002;2023-02-04T00:59:43;12.23;;;5.83;;
34920;SDS011;21128;50.016;20.002;2023-02-04T01:02:10;11.10;;;5.85;;
34920;SDS011;21128;50.016;20.002;2023-02-04T01:04:38;16.03;;;7.23;;
34920;SDS011;21128;50.016;20.002;2023-02-04T01:07:05;16.30;;;5.90;;
34920;SDS011;21128;50.016;20.002;2023-02-04T01:09:32;12.90;;;5.80;;
34920;SDS011;21128;50.016;20.002;2023-02-04T01:11:59;10.03;;;5.60;;
34920;SDS011;21128;50.016;20.002;2023-02-04T01:14:27;10.17;;;5.70;;
34920;SDS011;21128;50.016;20.002;2023-02-04T01:16:54;13.45;;;5.42;;
34920;SDS011;21128;50.016;20.002;2023-02-04T01:19:21;11.03;;;5.73;;
34920;SDS011;21128;50.016;20.002;2023-02-04T01:21:48;9.40;;;5.47;;
34920;SDS011;21128;50.016;20.002;2023-02-04T01:24:16;9.47;;;5.17;;
34920;SDS011;21128;50.016;20.002;2023-02-04T01:26:43;8.58;;;5.47;;
34920;SDS011;21128;50.016;20.002;2023-02-04T01:29:10;9.17;;;6.00;;
34920;SDS011;21128;50.016;20.002;2023-02-04T01:31:38;8.50;;;5.60;;
34920;SDS011;21128;50.016;20.002;2023-02-04T01:34:05;12.80;;;5.70;;
34920;SDS011;21128;50.016;20.002;2023-02-04T01:36:33;9.90;;;5.40;;
34920;SDS011;21128;50.016;20.002;2023-02-04T01:39:01;11.57;;;5.30;;
34920;SDS011;21128;50.016;20.002;2023-02-04T01:41:29;6.35;;;4.30;;
34920;SDS011;21128;50.016;20.002;2023-02-04T01:43:59;6.83;;;4.57;;
34920;SDS011;21128;50.016;20.002;2023-02-04T01:46:27;7.63;;;4.93;;
34920;SDS011;21128;50.016;20.002;2023-02-04T01:48:54;7.43;;;4.10;;
34920;SDS011;21128;50.016;20.002;2023-02-04T01:51:24;6.55;;;3.70;;
34920;SDS011;21128;50.016;20.002;2023-02-04T01:53:55;10.90;;;4.40;;
34920;SDS011;21128;50.016;20.002;2023-02-04T01:56:23;6.00;;;3.33;;
34920;SDS011;21128;50.016;20.002;2023-02-04T01:58:53;7.37;;;3.93;;
34920;SDS011;21128;50.016;20.002;2023-02-04T02:01:56;7.50;;;4.17;;
34920;SDS011;21128;50.016;20.002;2023-02-04T02:04:23;7.90;;;4.00;;
34920;SDS011;21128;50.016;20.002;2023-02-04T02:06:59;8.47;;;4.30;;
34920;SDS011;21128;50.016;20.002;2023-02-04T02:09:29;6.57;;;3.70;;
34920;SDS011;21128;50.016;20.002;2023-02-04T02:11:58;10.15;;;4.00;;
34920;SDS011;21128;50.016;20.002;2023-02-04T02:14:30;6.30;;;4.00;;
34920;SDS011;21128;50.016;20.002;2023-02-04T02:16:57;6.20;;;3.30;;
34920;SDS011;21128;50.016;20.002;2023-02-04T02:19:31;9.97;;;4.20;;
34920;SDS011;21128;50.016;20.002;2023-02-04T02:22:03;7.10;;;4.20;;
34920;SDS011;21128;50.016;20.002;2023-02-04T02:24:36;9.47;;;4.30;;
34920;SDS011;21128;50.016;20.002;2023-02-04T02:27:04;7.33;;;4.00;;
34920;SDS011;21128;50.016;20.002;2023-02-04T02:29:35;6.87;;;4.13;;
34920;SDS011;21128;50.016;20.002;2023-02-04T02:32:04;6.70;;;4.20;;
34920;SDS011;21128;50.016;20.002;2023-02-04T02:34:33;7.13;;;4.27;;
34920;SDS011;21128;50.016;20.002;2023-02-04T02:37:01;5.13;;;3.50;;
34920;SDS011;21128;50.016;20.002;2023-02-04T02:39:30;5.90;;;3.17;;
34920;SDS011;21128;50.016;20.002;2023-02-04T02:41:58;3.37;;;2.23;;
34920;SDS011;21128;50.016;20.002;2023-02-04T02:44:25;7.03;;;2.37;;
34920;SDS011;21128;50.016;20.002;2023-02-04T02:46:53;3.93;;;2.67;;
34920;SDS011;21128;50.016;20.002;2023-02-04T02:49:21;5.20;;;2.70;;
34920;SDS011;21128;50.016;20.002;2023-02-04T02:51:48;4.60;;;2.40;;
34920;SDS011;21128;50.016;20.002;2023-02-04T02:54:21;2.40;;;1.73;;
34920;SDS011;21128;50.016;20.002;2023-02-04T02:56:54;4.63;;;2.53;;
34920;SDS011;21128;50.016;20.002;2023-02-04T02:59:22;3.87;;;2.17;;
34920;SDS011;21128;50.016;20.002;2023-02-04T03:01:52;2.23;;;1.87;;
34920;SDS011;21128;50.016;20.002;2023-02-04T03:04:24;3.43;;;1.70;;
34920;SDS011;21128;50.016;20.002;2023-02-04T03:06:54;4.10;;;2.20;;
34920;SDS011;21128;50.016;20.002;2023-02-04T03:09:22;4.17;;;2.10;;
34920;SDS011;21128;50.016;20.002;2023-02-04T03:11:51;2.37;;;1.77;;
34920;SDS011;21128;50.016;20.002;2023-02-04T03:14:19;3.23;;;1.73;;
34920;SDS011;21128;50.016;20.002;2023-02-04T03:16:48;2.67;;;1.57;;
34920;SDS011;21128;50.016;20.002;2023-02-04T03:19:16;6.40;;;2.00;;
34920;SDS011;21128;50.016;20.002;2023-02-04T03:21:43;3.73;;;2.07;;
34920;SDS011;21128;50.016;20.002;2023-02-04T03:24:11;3.05;;;1.90;;
34920;SDS011;21128;50.016;20.002;2023-02-04T03:26:38;4.70;;;2.50;;
34920;SDS011;21128;50.016;20.002;2023-02-04T03:29:07;11.50;;;5.60;;
34920;SDS011;21128;50.016;20.002;2023-02-04T03:31:36;16.03;;;7.43;;
34920;SDS011;21128;50.016;20.002;2023-02-04T03:34:03;7.03;;;4.30;;
34920;SDS011;21128;50.016;20.002;2023-02-04T03:36:31;5.22;;;2.80;;
34920;SDS011;21128;50.016;20.002;2023-02-04T03:38:58;3.35;;;2.30;;
34920;SDS011;21128;50.016;20.002;2023-02-04T03:41:25;4.15;;;2.10;;
34920;SDS011;21128;50.016;20.002;2023-02-04T03:43:52;2.62;;;1.82;;
34920;SDS011;21128;50.016;20.002;2023-02-04T03:46:20;2.57;;;1.40;;
34920;SDS011;21128;50.016;20.002;2023-02-04T03:48:50;1.77;;;1.30;;
34920;SDS011;21128;50.016;20.002;2023-02-04T03:51:17;1.60;;;1.00;;
34920;SDS011;21128;50.016;20.002;2023-02-04T03:53:44;2.80;;;0.97;;
34920;SDS011;21128;50.016;20.002;2023-02-04T03:56:11;2.07;;;1.13;;
34920;SDS011;21128;50.016;20.002;2023-02-04T03:58:38;1.95;;;0.95;;
34920;SDS011;21128;50.016;20.002;2023-02-04T04:01:05;2.10;;;1.03;;
34920;SDS011;21128;50.016;20.002;2023-02-04T04:03:33;2.45;;;0.90;;
34920;SDS011;21128;50.016;20.002;2023-02-04T04:06:00;3.20;;;1.47;;
34920;SDS011;21128;50.016;20.002;2023-02-04T04:08:27;4.67;;;1.50;;
34920;SDS011;21128;50.016;20.002;2023-02-04T04:10:54;4.10;;;1.70;;
34920;SDS011;21128;50.016;20.002;2023-02-04T04:13:21;3.55;;;1.70;;
34920;SDS011;21128;50.016;20.002;2023-02-04T04:15:49;3.65;;;1.55;;
34920;SDS011;21128;50.016;20.002;2023-02-04T04:18:16;3.43;;;1.63;;
34920;SDS011;21128;50.016;20.002;2023-02-04T04:20:43;2.85;;;1.60;;
34920;SDS011;21128;50.016;20.002;2023-02-04T04:23:10;2.50;;;1.70;;
34920;SDS011;21128;50.016;20.002;2023-02-04T04:25:38;3.67;;;1.80;;
34920;SDS011;21128;50.016;20.002;2023-02-04T04:28:05;4.90;;;2.30;;
34920;SDS011;21128;50.016;20.002;2023-02-04T04:30:32;4.95;;;2.00;;
34920;SDS011;21128;50.016;20.002;2023-02-04T04:32:59;3.33;;;1.27;;
34920;SDS011;21128;50.016;20.002;2023-02-04T04:35:26;1.20;;;0.87;;
34920;SDS011;21128;50.016;20.002;2023-02-04T04:37:53;3.40;;;1.63;;
34920;SDS011;21128;50.016;20.002;2023-02-04T04:40:21;4.07;;;2.10;;
34920;SDS011;21128;50.016;20.002;2023-02-04T04:42:49;3.65;;;2.35;;
34920;SDS011;21128;50.016;20.002;2023-02-04T04:45:16;5.13;;;3.27;;
34920;SDS011;21128;50.016;20.002;2023-02-04T04:47:43;5.45;;;3.92;;
34920;SDS011;21128;50.016;20.002;2023-02-04T04:50:11;6.97;;;4.47;;
34920;SDS011;21128;50.016;20.002;2023-02-04T04:52:38;7.58;;;4.55;;
34920;SDS011;21128;50.016;20.002;2023-02-04T04:55:06;9.30;;;6.03;;
34920;SDS011;21128;50.016;20.002;2023-02-04T04:57:34;10.87;;;7.33;;
34920;SDS011;21128;50.016;20.002;2023-02-04T05:00:01;13.00;;;7.77;;
34920;SDS011;21128;50.016;20.002;2023-02-04T05:02:30;10.77;;;8.70;;
34920;SDS011;21128;50.016;20.002;2023-02-04T05:04:57;16.12;;;10.23;;
34920;SDS011;21128;50.016;20.002;2023-02-04T05:07:24;13.07;;;10.17;;
34920;SDS011;21128;50.016;20.002;2023-02-04T05:09:53;12.63;;;9.30;;
34920;SDS011;21128;50.016;20.002;2023-02-04T05:12:20;12.03;;;9.13;;
34920;SDS011;21128;50.016;20.002;2023-02-04T05:14:47;11.07;;;8.83;;
34920;SDS011;21128;50.016;20.002;2023-02-04T05:17:17;13.43;;;9.33;;
34920;SDS011;21128;50.016;20.002;2023-02-04T05:19:44;12.70;;;8.40;;
34920;SDS011;21128;50.016;20.002;2023-02-04T05:22:11;13.50;;;9.90;;
34920;SDS011;21128;50.016;20.002;2023-02-04T05:24:38;12.90;;;8.27;;
34920;SDS011;21128;50.016;20.002;2023-02-04T05:27:05;11.33;;;8.27;;
34920;SDS011;21128;50.016;20.002;2023-02-04T05:29:35;9.47;;;7.13;;
34920;SDS011;21128;50.016;20.002;2023-02-04T05:32:05;10.25;;;7.35;;
34920;SDS011;21128;50.016;20.002;2023-02-04T05:34:34;8.03;;;6.10;;
34920;SDS011;21128;50.016;20.002;2023-02-04T05:37:02;10.97;;;6.97;;
34920;SDS011;21128;50.016;20.002;2023-02-04T05:39:32;8.90;;;6.13;;
34920;SDS011;21128;50.016;20.002;2023-02-04T05:41:59;9.60;;;6.73;;
34920;SDS011;21128;50.016;20.002;2023-02-04T05:44:26;9.30;;;6.70;;
34920;SDS011;21128;50.016;20.002;2023-02-04T05:46:55;10.75;;;5.80;;
34920;SDS011;21128;50.016;20.002;2023-02-04T05:49:25;8.50;;;5.83;;
34920;SDS011;21128;50.016;20.002;2023-02-04T05:51:52;6.90;;;5.17;;
34920;SDS011;21128;50.016;20.002;2023-02-04T05:54:21;8.00;;;4.93;;
34920;SDS011;21128;50.016;20.002;2023-02-04T05:56:51;7.77;;;5.40;;
34920;SDS011;21128;50.016;20.002;2023-02-04T05:59:21;7.30;;;5.25;;
34920;SDS011;21128;50.016;20.002;2023-02-04T06:01:48;8.00;;;4.80;;
34920;SDS011;21128;50.016;20.002;2023-02-04T06:04:18;8.40;;;5.10;;
34920;SDS011;21128;50.016;20.002;2023-02-04T06:06:48;6.20;;;4.40;;
34920;SDS011;21128;50.016;20.002;2023-02-04T06:09:16;7.40;;;5.27;;
34920;SDS011;21128;50.016;20.002;2023-02-04T06:11:46;7.27;;;4.80;;
34920;SDS011;21128;50.016;20.002;2023-02-04T06:14:16;8.40;;;5.17;;
34920;SDS011;21128;50.016;20.002;2023-02-04T06:16:43;5.90;;;3.65;;
34920;SDS011;21128;50.016;20.002;2023-02-04T06:19:10;7.63;;;4.67;;
34920;SDS011;21128;50.016;20.002;2023-02-04T06:21:37;7.43;;;4.67;;
34920;SDS011;21128;50.016;20.002;2023-02-04T06:24:04;6.65;;;4.58;;
34920;SDS011;21128;50.016;20.002;2023-02-04T06:26:31;6.37;;;4.50;;
34920;SDS011;21128;50.016;20.002;2023-02-04T06:28:59;6.27;;;4.00;;
34920;SDS011;21128;50.016;20.002;2023-02-04T06:31:25;6.73;;;4.57;;
34920;SDS011;21128;50.016;20.002;2023-02-04T06:33:52;8.07;;;4.80;;
34920;SDS011;21128;50.016;20.002;2023-02-04T06:36:19;7.30;;;4.77;;
34920;SDS011;21128;50.016;20.002;2023-02-04T06:38:46;9.93;;;5.50;;
34920;SDS011;21128;50.016;20.002;2023-02-04T06:41:13;12.93;;;5.50;;
34920;SDS011;21128;50.016;20.002;2023-02-04T06:43:40;7.97;;;4.90;;
34920;SDS011;21128;50.016;20.002;2023-02-04T06:46:07;7.43;;;4.57;;
34920;SDS011;21128;50.016;20.002;2023-02-04T06:48:34;6.17;;;4.60;;
34920;SDS011;21128;50.016;20.002;2023-02-04T06:51:01;6.87;;;4.10;;
34920;SDS011;21128;50.016;20.002;2023-02-04T06:53:28;11.93;;;4.87;;
34920;SDS011;21128;50.016;20.002;2023-02-04T06:56:00;5.85;;;3.92;;
34920;SDS011;21128;50.016;20.002;2023-02-04T06:58:30;7.23;;;4.30;;
34920;SDS011;21128;50.016;20.002;2023-02-04T07:00:57;7.15;;;4.60;;
34920;SDS011;21128;50.016;20.002;2023-02-04T07:03:24;7.90;;;4.55;;
34920;SDS011;21128;50.016;20.002;2023-02-04T07:05:51;7.00;;;4.10;;
34920;SDS011;21128;50.016;20.002;2023-02-04T07:08:19;6.27;;;3.90;;
34920;SDS011;21128;50.016;20.002;2023-02-04T07:10:49;5.63;;;3.80;;
34920;SDS011;21128;50.016;20.002;2023-02-04T07:13:16;6.37;;;3.95;;
34920;SDS011;21128;50.016;20.002;2023-02-04T07:15:43;7.73;;;3.80;;
34920;SDS011;21128;50.016;20.002;2023-02-04T07:18:10;6.97;;;4.10;;
34920;SDS011;21128;50.016;20.002;2023-02-04T07:20:37;8.78;;;3.65;;
34920;SDS011;21128;50.016;20.002;2023-02-04T07:23:04;6.93;;;4.00;;
34920;SDS011;21128;50.016;20.002;2023-02-04T07:25:31;9.53;;;4.90;;
34920;SDS011;21128;50.016;20.002;2023-02-04T07:27:58;9.57;;;4.67;;
34920;SDS011;21128;50.016;20.002;2023-02-04T07:30:27;6.33;;;4.47;;
34920;SDS011;21128;50.016;20.002;2023-02-04T07:32:54;8.00;;;4.08;;
34920;SDS011;21128;50.016;20.002;2023-02-04T07:35:20;9.60;;;4.40;;
34920;SDS011;21128;50.016;20.002;2023-02-04T07:37:47;9.47;;;4.50;;
34920;SDS011;21128;50.016;20.002;2023-02-04T07:40:14;9.13;;;4.73;;
34920;SDS011;21128;50.016;20.002;2023-02-04T07:42:41;6.77;;;4.57;;
34920;SDS011;21128;50.016;20.002;2023-02-04T07:45:09;9.95;;;4.40;;
34920;SDS011;21128;50.016;20.002;2023-02-04T07:47:36;6.60;;;4.53;;
34920;SDS011;21128;50.016;20.002;2023-02-04T07:50:03;7.58;;;4.83;;
34920;SDS011;21128;50.016;20.002;2023-02-04T07:52:30;7.43;;;4.90;;
34920;SDS011;21128;50.016;20.002;2023-02-04T07:54:57;9.00;;;4.50;;
34920;SDS011;21128;50.016;20.002;2023-02-04T07:57:25;7.07;;;4.70;;
34920;SDS011;21128;50.016;20.002;2023-02-04T07:59:52;7.60;;;4.83;;
34920;SDS011;21128;50.016;20.002;2023-02-04T08:02:19;7.30;;;4.20;;
34920;SDS011;21128;50.016;20.002;2023-02-04T08:04:45;6.55;;;4.78;;
34920;SDS011;21128;50.016;20.002;2023-02-04T08:07:12;8.07;;;4.40;;
34920;SDS011;21128;50.016;20.002;2023-02-04T08:09:39;7.67;;;4.28;;
34920;SDS011;21128;50.016;20.002;2023-02-04T08:12:06;8.80;;;4.77;;
34920;SDS011;21128;50.016;20.002;2023-02-04T08:14:33;7.60;;;4.50;;
34920;SDS011;21128;50.016;20.002;2023-02-04T08:17:00;6.97;;;4.17;;
34920;SDS011;21128;50.016;20.002;2023-02-04T08:19:27;6.50;;;4.22;;
34920;SDS011;21128;50.016;20.002;2023-02-04T08:21:54;8.60;;;4.07;;
34920;SDS011;21128;50.016;20.002;2023-02-04T08:24:21;7.85;;;4.05;;
34920;SDS011;21128;50.016;20.002;2023-02-04T08:26:48;5.73;;;4.00;;
34920;SDS011;21128;50.016;20.002;2023-02-04T08:29:15;5.67;;;3.67;;
34920;SDS011;21128;50.016;20.002;2023-02-04T08:31:42;8.30;;;4.13;;
34920;SDS011;21128;50.016;20.002;2023-02-04T08:34:09;5.70;;;4.10;;
34920;SDS011;21128;50.016;20.002;2023-02-04T08:36:36;7.57;;;4.80;;
34920;SDS011;21128;50.016;20.002;2023-02-04T08:39:03;7.60;;;4.45;;
34920;SDS011;21128;50.016;20.002;2023-02-04T08:41:30;8.83;;;4.50;;
34920;SDS011;21128;50.016;20.002;2023-02-04T08:43:59;8.87;;;4.13;;
34920;SDS011;21128;50.016;20.002;2023-02-04T08:46:26;6.70;;;3.90;;
34920;SDS011;21128;50.016;20.002;2023-02-04T08:48:53;8.70;;;4.40;;
34920;SDS011;21128;50.016;20.002;2023-02-04T08:51:20;9.77;;;4.73;;
34920;SDS011;21128;50.016;20.002;2023-02-04T08:53:47;9.10;;;4.70;;
34920;SDS011;21128;50.016;20.002;2023-02-04T08:56:14;9.73;;;4.13;;
34920;SDS011;21128;50.016;20.002;2023-02-04T08:58:43;9.03;;;4.03;;
34920;SDS011;21128;50.016;20.002;2023-02-04T09:01:11;8.30;;;3.70;;
34920;SDS011;21128;50.016;20.002;2023-02-04T09:03:38;8.53;;;4.35;;
34920;SDS011;21128;50.016;20.002;2023-02-04T09:06:06;6.30;;;4.10;;
34920;SDS011;21128;50.016;20.002;2023-02-04T09:08:34;5.27;;;3.23;;
34920;SDS011;21128;50.016;20.002;2023-02-04T09:11:01;6.15;;;3.40;;
34920;SDS011;21128;50.016;20.002;2023-02-04T09:13:30;6.87;;;3.30;;
34920;SDS011;21128;50.016;20.002;2023-02-04T09:15:58;7.37;;;3.97;;
34920;SDS011;21128;50.016;20.002;2023-02-04T09:18:25;8.08;;;3.98;;
34920;SDS011;21128;50.016;20.002;2023-02-04T09:20:52;5.97;;;3.93;;
34920;SDS011;21128;50.016;20.002;2023-02-04T09:23:19;6.37;;;4.20;;
34920;SDS011;21128;50.016;20.002;2023-02-04T09:25:46;5.90;;;3.90;;
34920;SDS011;21128;50.016;20.002;2023-02-04T09:28:14;7.93;;;4.23;;
34920;SDS011;21128;50.016;20.002;2023-02-04T09:30:44;7.17;;;4.30;;
34920;SDS011;21128;50.016;20.002;2023-02-04T09:33:12;5.23;;;4.00;;
34920;SDS011;21128;50.016;20.002;2023-02-04T09:35:42;8.03;;;4.70;;
34920;SDS011;21128;50.016;20.002;2023-02-04T09:38:09;8.50;;;4.73;;
34920;SDS011;21128;50.016;20.002;2023-02-04T09:40:37;8.20;;;4.70;;
34920;SDS011;21128;50.016;20.002;2023-02-04T09:43:11;7.50;;;4.42;;
34920;SDS011;21128;50.016;20.002;2023-02-04T09:45:49;7.03;;;4.63;;
34920;SDS011;21128;50.016;20.002;2023-02-04T09:48:17;7.53;;;4.53;;
34920;SDS011;21128;50.016;20.002;2023-02-04T09:50:45;12.80;;;5.13;;
34920;SDS011;21128;50.016;20.002;2023-02-04T09:53:13;7.37;;;4.53;;
34920;SDS011;21128;50.016;20.002;2023-02-04T09:55:44;9.73;;;5.43;;
34920;SDS011;21128;50.016;20.002;2023-02-04T09:58:15;6.70;;;4.80;;
34920;SDS011;21128;50.016;20.002;2023-02-04T10:00:44;6.47;;;4.47;;
34920;SDS011;21128;50.016;20.002;2023-02-04T10:03:14;10.07;;;4.53;;
34920;SDS011;21128;50.016;20.002;2023-02-04T10:05:44;5.57;;;3.97;;
34920;SDS011;21128;50.016;20.002;2023-02-04T10:08:13;8.40;;;4.50;;
34920;SDS011;21128;50.016;20.002;2023-02-04T10:10:46;8.73;;;4.43;;
34920;SDS011;21128;50.016;20.002;2023-02-04T10:13:16;6.80;;;4.23;;
34920;SDS011;21128;50.016;20.002;2023-02-04T10:15:46;8.90;;;4.60;;
34920;SDS011;21128;50.016;20.002;2023-02-04T10:18:19;7.83;;;5.47;;
34920;SDS011;21128;50.016;20.002;2023-02-04T10:21:07;9.07;;;4.97;;
34920;SDS011;21128;50.016;20.002;2023-02-04T10:23:46;10.00;;;5.00;;
34920;SDS011;21128;50.016;20.002;2023-02-04T10:26:16;10.30;;;5.40;;
34920;SDS011;21128;50.016;20.002;2023-02-04T10:28:44;8.50;;;5.30;;
34920;SDS011;21128;50.016;20.002;2023-02-04T10:31:28;7.10;;;5.00;;
34920;SDS011;21128;50.016;20.002;2023-02-04T10:36:42;8.67;;;5.63;;
34920;SDS011;21128;50.016;20.002;2023-02-04T10:41:48;11.25;;;5.50;;
34920;SDS011;21128;50.016;20.002;2023-02-04T10:44:18;9.13;;;5.53;;
34920;SDS011;21128;50.016;20.002;2023-02-04T10:47:00;6.37;;;4.70;;
34920;SDS011;21128;50.016;20.002;2023-02-04T10:49:29;6.60;;;4.07;;
34920;SDS011;21128;50.016;20.002;2023-02-04T10:51:57;7.47;;;4.17;;
34920;SDS011;21128;50.016;20.002;2023-02-04T10:54:25;8.63;;;4.93;;
34920;SDS011;21128;50.016;20.002;2023-02-04T10:59:44;6.00;;;3.65;;
34920;SDS011;21128;50.016;20.002;2023-02-04T11:02:22;8.83;;;3.83;;
34920;SDS011;21128;50.016;20.002;2023-02-04T11:05:03;4.10;;;3.00;;
34920;SDS011;21128;50.016;20.002;2023-02-04T11:07:36;12.20;;;4.03;;
34920;SDS011;21128;50.016;20.002;2023-02-04T11:10:03;8.07;;;3.90;;
34920;SDS011;21128;50.016;20.002;2023-02-04T11:15:35;8.07;;;3.60;;
34920;SDS011;21128;50.016;20.002;2023-02-04T11:20:47;6.07;;;3.80;;
34920;SDS011;21128;50.016;20.002;2023-02-04T11:25:43;5.80;;;3.57;;
34920;SDS011;21128;50.016;20.002;2023-02-04T11:28:14;4.70;;;3.15;;
34920;SDS011;21128;50.016;20.002;2023-02-04T11:31:00;3.60;;;2.50;;
34920;SDS011;21128;50.016;20.002;2023-02-04T11:33:36;5.10;;;2.60;;
34920;SDS011;21128;50.016;20.002;2023-02-04T11:36:08;4.30;;;2.50;;
34920;SDS011;21128;50.016;20.002;2023-02-04T11:38:37;3.55;;;2.25;;
34920;SDS011;21128;50.016;20.002;2023-02-04T11:41:14;5.83;;;3.17;;
34920;SDS011;21128;50.016;20.002;2023-02-04T11:43:44;3.80;;;2.73;;
34920;SDS011;21128;50.016;20.002;2023-02-04T11:46:17;5.10;;;3.10;;
34920;SDS011;21128;50.016;20.002;2023-02-04T11:48:46;7.60;;;3.40;;
34920;SDS011;21128;50.016;20.002;2023-02-04T11:51:29;4.70;;;3.13;;
34920;SDS011;21128;50.016;20.002;2023-02-04T11:53:59;5.20;;;3.30;;
34920;SDS011;21128;50.016;20.002;2023-02-04T11:56:27;5.97;;;3.10;;
34920;SDS011;21128;50.016;20.002;2023-02-04T11:58:56;5.37;;;2.93;;
34920;SDS011;21128;50.016;20.002;2023-02-04T12:01:31;7.93;;;3.33;;
34920;SDS011;21128;50.016;20.002;2023-02-04T12:04:00;6.43;;;3.43;;
34920;SDS011;21128;50.016;20.002;2023-02-04T12:06:31;4.13;;;3.27;;
34920;SDS011;21128;50.016;20.002;2023-02-04T12:09:34;8.40;;;3.93;;
34920;SDS011;21128;50.016;20.002;2023-02-04T12:12:01;7.60;;;4.23;;
34920;SDS011;21128;50.016;20.002;2023-02-04T12:14:33;7.20;;;3.60;;
34920;SDS011;21128;50.016;20.002;2023-02-04T12:17:15;9.00;;;4.70;;
34920;SDS011;21128;50.016;20.002;2023-02-04T12:19:44;8.17;;;3.77;;
34920;SDS011;21128;50.016;20.002;2023-02-04T12:22:14;8.77;;;4.90;;
34920;SDS011;21128;50.016;20.002;2023-02-04T12:24:42;7.50;;;4.10;;
34920;SDS011;21128;50.016;20.002;2023-02-04T12:27:10;5.07;;;2.73;;
34920;SDS011;21128;50.016;20.002;2023-02-04T12:29:38;5.30;;;3.33;;
34920;SDS011;21128;50.016;20.002;2023-02-04T12:32:07;6.17;;;3.83;;
34920;SDS011;21128;50.016;20.002;2023-02-04T12:34:34;8.67;;;4.07;;
34920;SDS011;21128;50.016;20.002;2023-02-04T12:37:04;6.17;;;3.53;;
34920;SDS011;21128;50.016;20.002;2023-02-04T12:39:32;7.85;;;3.65;;
34920;SDS011;21128;50.016;20.002;2023-02-04T12:41:59;6.00;;;3.77;;
34920;SDS011;21128;50.016;20.002;2023-02-04T12:44:26;5.20;;;2.77;;
34920;SDS011;21128;50.016;20.002;2023-02-04T12:46:53;5.57;;;2.93;;
34920;SDS011;21128;50.016;20.002;2023-02-04T12:49:20;5.05;;;2.55;;
34920;SDS011;21128;50.016;20.002;2023-02-04T12:51:50;4.13;;;2.57;;
34920;SDS011;21128;50.016;20.002;2023-02-04T12:54:17;5.97;;;2.93;;
34920;SDS011;21128;50.016;20.002;2023-02-04T12:56:47;3.50;;;2.20;;
34920;SDS011;21128;50.016;20.002;2023-02-04T12:59:17;5.07;;;2.03;;
34920;SDS011;21128;50.016;20.002;2023-02-04T13:01:48;2.90;;;1.90;;
34920;SDS011;21128;50.016;20.002;2023-02-04T13:04:15;2.53;;;1.30;;
34920;SDS011;21128;50.016;20.002;2023-02-04T13:06:45;5.13;;;1.30;;
34920;SDS011;21128;50.016;20.002;2023-02-04T13:09:12;2.87;;;1.50;;
34920;SDS011;21128;50.016;20.002;2023-02-04T13:11:39;4.15;;;1.85;;
34920;SDS011;21128;50.016;20.002;2023-02-04T13:14:07;3.97;;;1.60;;
34920;SDS011;21128;50.016;20.002;2023-02-04T13:16:34;3.00;;;1.50;;
34920;SDS011;21128;50.016;20.002;2023-02-04T13:19:04;3.27;;;1.87;;
34920;SDS011;21128;50.016;20.002;2023-02-04T13:21:31;2.97;;;1.90;;
34920;SDS011;21128;50.016;20.002;2023-02-04T13:23:59;4.15;;;2.05;;
34920;SDS011;21128;50.016;20.002;2023-02-04T13:26:26;6.47;;;2.00;;
34920;SDS011;21128;50.016;20.002;2023-02-04T13:28:53;3.97;;;2.23;;
34920;SDS011;21128;50.016;20.002;2023-02-04T13:31:20;4.00;;;2.33;;
34920;SDS011;21128;50.016;20.002;2023-02-04T13:33:47;4.37;;;2.30;;
34920;SDS011;21128;50.016;20.002;2023-02-04T13:36:15;7.72;;;2.67;;
34920;SDS011;21128;50.016;20.002;2023-02-04T13:38:42;5.07;;;2.30;;
34920;SDS011;21128;50.016;20.002;2023-02-04T13:41:09;4.12;;;2.45;;
34920;SDS011;21128;50.016;20.002;2023-02-04T13:43:39;4.20;;;2.33;;
34920;SDS011;21128;50.016;20.002;2023-02-04T13:46:06;4.95;;;2.25;;
34920;SDS011;21128;50.016;20.002;2023-02-04T13:48:36;5.17;;;2.03;;
34920;SDS011;21128;50.016;20.002;2023-02-04T13:51:06;5.53;;;2.10;;
34920;SDS011;21128;50.016;20.002;2023-02-04T13:53:33;4.87;;;2.63;;
34920;SDS011;21128;50.016;20.002;2023-02-04T13:56:04;4.60;;;2.10;;
34920;SDS011;21128;50.016;20.002;2023-02-04T13:58:33;5.07;;;2.47;;
34920;SDS011;21128;50.016;20.002;2023-02-04T14:01:03;3.60;;;2.00;;
34920;SDS011;21128;50.016;20.002;2023-02-04T14:03:31;5.23;;;2.47;;
34920;SDS011;21128;50.016;20.002;2023-02-04T14:06:00;4.00;;;2.47;;
34920;SDS011;21128;50.016;20.002;2023-02-04T14:08:30;5.90;;;2.43;;
34920;SDS011;21128;50.016;20.002;2023-02-04T14:10:58;5.27;;;2.70;;
34920;SDS011;21128;50.016;20.002;2023-02-04T14:13:25;6.07;;;3.13;;
34920;SDS011;21128;50.016;20.002;2023-02-04T14:15:55;3.93;;;2.10;;
34920;SDS011;21128;50.016;20.002;2023-02-04T14:18:23;3.77;;;2.20;;
34920;SDS011;21128;50.016;20.002;2023-02-04T14:20:53;5.77;;;2.40;;
34920;SDS011;21128;50.016;20.002;2023-02-04T14:23:23;5.50;;;2.60;;
34920;SDS011;21128;50.016;20.002;2023-02-04T14:25:53;3.90;;;2.30;;
34920;SDS011;21128;50.016;20.002;2023-02-04T14:28:23;5.10;;;2.33;;
34920;SDS011;21128;50.016;20.002;2023-02-04T14:30:50;4.60;;;2.40;;
34920;SDS011;21128;50.016;20.002;2023-02-04T14:33:20;6.23;;;2.93;;
34920;SDS011;21128;50.016;20.002;2023-02-04T14:35:48;7.15;;;3.20;;
34920;SDS011;21128;50.016;20.002;2023-02-04T14:38:15;6.12;;;2.98;;
34920;SDS011;21128;50.016;20.002;2023-02-04T14:40:43;5.70;;;3.00;;
34920;SDS011;21128;50.016;20.002;2023-02-04T14:43:13;9.17;;;4.70;;
34920;SDS011;21128;50.016;20.002;2023-02-04T14:45:40;7.00;;;3.98;;
34920;SDS011;21128;50.016;20.002;2023-02-04T14:48:11;8.17;;;3.20;;
34920;SDS011;21128;50.016;20.002;2023-02-04T14:50:40;7.67;;;3.73;;
34920;SDS011;21128;50.016;20.002;2023-02-04T14:53:08;5.43;;;2.70;;
34920;SDS011;21128;50.016;20.002;2023-02-04T14:55:37;6.07;;;3.53;;